GMMX METAR and TAF | Updated Today

GMMX METAR

Menara Airport

Observation time: 13 min. ago

GMMX 291230Z 30006KT 270V340 9999 OVC025 20/14 Q1015 NOSIG

Need help? Read our tutorial on how to read METARs or read the parsed version below.

Menara Airport (GMMX) METAR

  • Weather conditions on Sun, 29 May 2022 12:30:00 +0000 (13 min. ago):
  • Present conditions: Dry
  • Clouds: Overcast sky at 762 meters
  • Visibility: Greater than 10 km
  • Wind: 300 degrees at 6 knots
  • Temperature: 20 celsius
  • Dew point: 14 celsius
  • Pressure: 1015 millibars
  • Remarks: None


Useful to know...

GMMX TAF

Menara Airport

TAF GMMX 291100Z 2912/3018 24007KT 9999 SCT026 SCT100 TEMPO 2916/2922 32016KT FEW040CB
Observation time: 1:43 hr. ago
Need help? Read our tutorial on how to read TAFs or read the parsed version below.

Parsed version of TAF for Menara Airport (GMMX)

  • From 29 May at 12:00 UTC, to day 30 of the month at 18:00 UTC
  • Clouds: Scattered at 792 meters; scattered at 3048 meters
  • Visibility: Greater than 10 km
  • Wind: 240 degrees at 7
  • Expected to arise temporarily, from 29 May at 16:00 UTC, to day 29 of the month at 22:00 UTC
  • Clouds: A few at 1219 meters, cumulonimbus
  • Wind: 320 degrees at 16

Airports near GMMX

No airports found within 100nm radius.